Time;durP1;ratioP1;P1;durP2;ratioP2;P2;SDS_P1;SDS_P2;PMS_P1;PMS_P2;Temp;Humidity;BMP_temperature;BMP_pressure;BME280_temperature;BME280_humidity;BME280_pressure;Samples;Min_cycle;Max_cycle;Signal;HPM_P1;HPM_P2
2021/01/12 00:00:29;;;;;;;;;;;27.40;38.70;;;;;;5052565;28;19908;-61
2021/01/12 00:02:55;;;;;;;;;;;27.40;38.50;;;;;;5052658;28;20363;-60
2021/01/12 00:05:20;;;;;;;;;;;27.30;38.40;;;;;;5089133;28;19971;-63
2021/01/12 00:07:46;;;;;;;;;;;27.40;38.50;;;;;;5080932;28;20430;-56
2021/01/12 00:10:12;;;;;;;;;;;27.40;38.50;;;;;;5092802;28;19921;-60
2021/01/12 00:12:38;;;;;;;;;;;27.40;38.50;;;;;;5092867;28;19939;-61
2021/01/12 00:15:04;;;;;;;;;;;27.40;38.50;;;;;;5091910;28;19912;-61
2021/01/12 00:17:29;;;;;;;;;;;27.40;39.10;;;;;;5092511;28;19920;-61
2021/01/12 00:19:55;;;;;;;;;;;27.40;38.40;;;;;;5088998;28;20426;-58
2021/01/12 00:22:20;;;;;;;;;;;27.30;38.30;;;;;;5081374;28;19915;-60
2021/01/12 00:24:46;;;;;;;;;;;27.30;38.30;;;;;;5093114;28;19973;-72
2021/01/12 00:27:12;;;;;;;;;;;27.30;38.40;;;;;;5091427;28;19908;-56
2021/01/12 00:29:37;;;;;;;;;;;27.30;38.40;;;;;;5079795;28;20385;-56
2021/01/12 00:32:03;;;;;;;;;;;27.30;38.30;;;;;;5072532;28;19954;-60
2021/01/12 00:34:28;;;;;;;;;;;27.30;38.30;;;;;;5081952;28;19916;-60
2021/01/12 00:36:54;;;;;;;;;;;27.30;38.30;;;;;;5072431;28;20362;-61
2021/01/12 00:39:20;;;;;;;;;;;27.30;38.20;;;;;;5072386;28;20000;-53
2021/01/12 00:41:48;;;;;;;;;;;27.40;38.30;;;;;;5087202;28;20266;-56
2021/01/12 00:44:14;;;;;;;;;;;27.30;38.20;;;;;;5092472;28;19908;-53
2021/01/12 00:46:42;;;;;;;;;;;27.30;38.30;;;;;;5082679;28;20259;-52
2021/01/12 00:49:07;;;;;;;;;;;27.30;38.20;;;;;;5092480;28;20290;-54
2021/01/12 00:51:33;;;;;;;;;;;27.30;38.30;;;;;;5079739;28;19912;-51
2021/01/12 00:53:59;;;;;;;;;;;27.30;38.20;;;;;;5092302;28;19923;-52
2021/01/12 00:56:24;;;;;;;;;;;27.30;38.40;;;;;;5083362;28;19920;-60
2021/01/12 00:58:50;;;;;;;;;;;27.10;36.30;;;;;;5076205;28;19919;-53
2021/01/12 01:01:15;;;;;;;;;;;26.90;28.90;;;;;;5092029;28;19957;-57
2021/01/12 01:03:41;;;;;;;;;;;26.60;26.00;;;;;;5089536;28;20259;-60
2021/01/12 01:06:06;;;;;;;;;;;26.20;25.00;;;;;;5096006;28;19912;-56
2021/01/12 01:08:32;;;;;;;;;;;26.00;23.10;;;;;;5076403;28;19916;-54
2021/01/12 01:10:57;;;;;;;;;;;25.90;22.30;;;;;;5075677;28;19909;-53
2021/01/12 01:13:23;;;;;;;;;;;25.70;22.10;;;;;;5075917;28;19915;-54
2021/01/12 01:15:48;;;;;;;;;;;25.60;21.30;;;;;;5082561;28;20343;-55
2021/01/12 01:18:14;;;;;;;;;;;25.50;21.10;;;;;;5091843;28;19952;-54
2021/01/12 01:20:39;;;;;;;;;;;25.50;21.00;;;;;;5084308;28;20278;-55
2021/01/12 01:23:05;;;;;;;;;;;25.40;20.70;;;;;;5075466;28;19908;-64
2021/01/12 01:25:30;;;;;;;;;;;25.40;20.70;;;;;;5080153;28;19912;-60
2021/01/12 01:27:56;;;;;;;;;;;25.30;20.40;;;;;;5078497;28;20251;-62
2021/01/12 01:30:21;;;;;;;;;;;25.20;20.20;;;;;;5089557;28;19920;-62
2021/01/12 01:32:47;;;;;;;;;;;25.10;20.10;;;;;;5095208;28;19919;-52
2021/01/12 01:35:12;;;;;;;;;;;25.00;20.60;;;;;;5080290;28;19916;-52
2021/01/12 01:37:38;;;;;;;;;;;25.00;22.00;;;;;;5081040;28;19976;-53
2021/01/12 01:40:03;;;;;;;;;;;25.20;22.80;;;;;;5075091;28;20390;-52
2021/01/12 01:42:29;;;;;;;;;;;25.40;23.40;;;;;;5075402;28;19912;-52
2021/01/12 01:44:54;;;;;;;;;;;25.50;23.90;;;;;;5075025;28;19916;-52
2021/01/12 01:47:20;;;;;;;;;;;25.70;24.20;;;;;;5093424;28;19915;-55
2021/01/12 01:49:45;;;;;;;;;;;25.70;24.40;;;;;;5093987;28;19908;-53
2021/01/12 01:52:11;;;;;;;;;;;25.90;24.80;;;;;;5074522;28;19912;-55
2021/01/12 01:54:37;;;;;;;;;;;25.90;25.00;;;;;;5074947;28;20304;-55
2021/01/12 01:57:02;;;;;;;;;;;25.90;25.20;;;;;;5072671;28;19928;-52
2021/01/12 01:59:28;;;;;;;;;;;25.90;25.50;;;;;;5073331;28;20343;-54
2021/01/12 02:01:53;;;;;;;;;;;25.90;25.70;;;;;;5073742;28;19909;-54
2021/01/12 02:04:27;;;;;;;;;;;25.90;25.90;;;;;;5081272;28;19991;-54
2021/01/12 02:06:52;;;;;;;;;;;25.90;26.30;;;;;;5074706;28;20387;-53
2021/01/12 02:09:21;;;;;;;;;;;25.90;26.50;;;;;;5074954;28;19995;-53
2021/01/12 02:11:52;;;;;;;;;;;25.90;26.60;;;;;;5074609;28;19920;-52
2021/01/12 02:14:18;;;;;;;;;;;25.90;26.90;;;;;;5066546;28;19923;-54
2021/01/12 02:16:47;;;;;;;;;;;25.90;27.10;;;;;;5078748;28;20289;-53
2021/01/12 02:19:13;;;;;;;;;;;25.90;27.20;;;;;;5090464;28;19909;-52
2021/01/12 02:21:46;;;;;;;;;;;25.90;27.40;;;;;;5086281;28;19971;-56
2021/01/12 02:24:12;;;;;;;;;;;25.90;27.50;;;;;;5054381;28;19909;-54
2021/01/12 02:26:37;;;;;;;;;;;25.90;27.70;;;;;;5054644;28;19908;-56
2021/01/12 02:29:03;;;;;;;;;;;25.90;27.90;;;;;;5079994;28;19970;-53
2021/01/12 02:31:32;;;;;;;;;;;25.90;27.90;;;;;;5074329;28;19935;-53
2021/01/12 02:33:58;;;;;;;;;;;25.90;28.10;;;;;;5085253;28;20362;-53
2021/01/12 02:36:23;;;;;;;;;;;25.90;28.20;;;;;;5074055;28;20469;-53
2021/01/12 02:38:49;;;;;;;;;;;26.00;28.40;;;;;;5089632;28;19913;-53
2021/01/12 02:41:15;;;;;;;;;;;26.00;28.50;;;;;;5084818;28;19927;-51
2021/01/12 02:43:41;;;;;;;;;;;26.00;28.50;;;;;;5094383;28;19919;-55
2021/01/12 02:46:07;;;;;;;;;;;26.10;28.60;;;;;;5084581;28;19912;-55
2021/01/12 02:48:32;;;;;;;;;;;26.00;28.60;;;;;;5083288;28;19916;-55
2021/01/12 02:50:58;;;;;;;;;;;26.10;28.70;;;;;;5094076;28;19927;-54
2021/01/12 02:53:23;;;;;;;;;;;26.10;28.90;;;;;;5093983;28;20358;-52
2021/01/12 02:55:49;;;;;;;;;;;26.10;29.10;;;;;;5086470;28;19950;-52
2021/01/12 02:58:14;;;;;;;;;;;26.00;29.00;;;;;;5077093;28;19922;-55
2021/01/12 03:00:39;;;;;;;;;;;26.10;29.20;;;;;;5092345;28;19916;-55
2021/01/12 03:03:05;;;;;;;;;;;26.10;29.20;;;;;;5084477;28;19913;-54
2021/01/12 03:05:30;;;;;;;;;;;26.00;29.30;;;;;;5093277;28;19987;-52
2021/01/12 03:07:56;;;;;;;;;;;26.10;29.30;;;;;;5094044;28;20263;-52
2021/01/12 03:10:21;;;;;;;;;;;26.10;29.40;;;;;;5090278;28;19913;-55
2021/01/12 03:12:47;;;;;;;;;;;26.10;29.50;;;;;;5073367;28;19908;-54
2021/01/12 03:15:13;;;;;;;;;;;26.10;29.80;;;;;;5072816;28;20354;-54
2021/01/12 03:17:38;;;;;;;;;;;26.10;29.60;;;;;;5073556;28;19920;-53
2021/01/12 03:20:04;;;;;;;;;;;26.10;29.70;;;;;;5083275;28;19916;-52
2021/01/12 03:22:30;;;;;;;;;;;26.10;29.70;;;;;;5093449;28;19912;-55
2021/01/12 03:24:55;;;;;;;;;;;26.10;29.70;;;;;;5091743;28;20435;-55
2021/01/12 03:27:20;;;;;;;;;;;26.10;29.80;;;;;;5074419;28;19931;-56
2021/01/12 03:29:46;;;;;;;;;;;26.10;29.90;;;;;;5082774;28;19999;-55
2021/01/12 03:32:11;;;;;;;;;;;26.10;29.90;;;;;;5076486;28;20366;-55
2021/01/12 03:34:37;;;;;;;;;;;26.10;29.90;;;;;;5073770;28;20005;-53
2021/01/12 03:37:02;;;;;;;;;;;26.20;30.00;;;;;;5073216;28;20367;-55
2021/01/12 03:39:28;;;;;;;;;;;26.20;30.00;;;;;;5073179;28;19947;-56
2021/01/12 03:41:53;;;;;;;;;;;26.10;30.00;;;;;;5089267;28;19916;-56
2021/01/12 03:44:19;;;;;;;;;;;26.10;30.10;;;;;;5093476;28;20405;-56
2021/01/12 03:46:44;;;;;;;;;;;26.10;30.20;;;;;;5078097;28;19917;-56
2021/01/12 03:49:10;;;;;;;;;;;26.10;30.20;;;;;;5072967;28;19913;-56
2021/01/12 03:51:35;;;;;;;;;;;26.10;30.30;;;;;;5086276;28;20313;-55
2021/01/12 03:54:01;;;;;;;;;;;26.10;30.30;;;;;;5087238;28;19955;-56
2021/01/12 03:56:26;;;;;;;;;;;26.10;30.30;;;;;;5085018;28;19920;-54
2021/01/12 03:58:52;;;;;;;;;;;26.10;30.40;;;;;;5085204;28;19939;-55
2021/01/12 04:01:17;;;;;;;;;;;26.10;30.40;;;;;;5089518;28;20373;-52
2021/01/12 04:03:43;;;;;;;;;;;26.10;30.50;;;;;;5089848;28;19912;-53
2021/01/12 04:06:12;;;;;;;;;;;26.10;30.50;;;;;;5093193;28;19999;-53
2021/01/12 04:08:39;;;;;;;;;;;26.10;30.50;;;;;;5093094;28;19908;-54
2021/01/12 04:11:04;;;;;;;;;;;26.10;30.50;;;;;;5083181;28;20389;-54
2021/01/12 04:13:30;;;;;;;;;;;26.20;30.60;;;;;;5072952;28;19912;-52
2021/01/12 04:15:55;;;;;;;;;;;26.20;30.70;;;;;;5080682;28;20002;-52
2021/01/12 04:18:20;;;;;;;;;;;26.20;30.60;;;;;;5092887;28;19912;-53
2021/01/12 04:20:46;;;;;;;;;;;26.20;30.70;;;;;;5085886;28;20288;-52
2021/01/12 04:23:11;;;;;;;;;;;26.20;30.80;;;;;;5084368;28;19912;-55
2021/01/12 04:25:37;;;;;;;;;;;26.20;30.70;;;;;;5075918;28;19913;-55
2021/01/12 04:28:03;;;;;;;;;;;26.20;30.80;;;;;;5081769;28;19912;-53
2021/01/12 04:30:28;;;;;;;;;;;26.20;30.90;;;;;;5083914;28;20346;-52
2021/01/12 04:32:54;;;;;;;;;;;26.20;30.90;;;;;;5087137;28;19912;-52
2021/01/12 04:35:19;;;;;;;;;;;26.20;30.90;;;;;;5096667;28;20358;-52
2021/01/12 04:37:45;;;;;;;;;;;26.20;30.90;;;;;;5096933;28;19959;-52
2021/01/12 04:40:11;;;;;;;;;;;26.10;30.90;;;;;;5094648;28;19916;-52
2021/01/12 04:42:36;;;;;;;;;;;26.10;31.00;;;;;;5076614;28;19934;-52
2021/01/12 04:45:02;;;;;;;;;;;26.10;31.00;;;;;;5076698;28;19916;-55
2021/01/12 04:47:28;;;;;;;;;;;26.10;31.00;;;;;;5096800;28;19909;-53
2021/01/12 04:49:53;;;;;;;;;;;26.10;31.10;;;;;;5087143;28;19912;-55
2021/01/12 04:52:19;;;;;;;;;;;26.20;31.20;;;;;;5096614;28;19926;-53
2021/01/12 04:54:46;;;;;;;;;;;26.10;31.20;;;;;;5085067;28;20366;-52
2021/01/12 04:57:12;;;;;;;;;;;26.10;31.20;;;;;;5094685;28;19968;-55
2021/01/12 04:59:38;;;;;;;;;;;26.10;31.20;;;;;;5079664;28;20003;-53
2021/01/12 05:02:03;;;;;;;;;;;26.20;31.30;;;;;;5076671;28;19924;-55
2021/01/12 05:04:29;;;;;;;;;;;26.10;31.20;;;;;;5095763;28;19912;-55
2021/01/12 05:06:55;;;;;;;;;;;26.20;31.30;;;;;;5096360;28;19908;-53
2021/01/12 05:09:23;;;;;;;;;;;26.20;31.30;;;;;;5095929;28;19995;-56
2021/01/12 05:11:49;;;;;;;;;;;26.10;31.30;;;;;;5079836;28;20457;-51
2021/01/12 05:14:15;;;;;;;;;;;26.20;31.40;;;;;;5091271;28;19999;-56
2021/01/12 05:16:51;;;;;;;;;;;26.10;31.30;;;;;;5090177;28;19930;-56
2021/01/12 05:19:20;;;;;;;;;;;26.10;31.40;;;;;;5095876;28;19908;-54
2021/01/12 05:21:47;;;;;;;;;;;26.20;31.40;;;;;;5080290;28;19913;-54
2021/01/12 05:24:15;;;;;;;;;;;26.10;31.40;;;;;;5075508;28;19919;-55
2021/01/12 05:26:40;;;;;;;;;;;26.10;31.40;;;;;;5089920;28;20282;-53
2021/01/12 05:29:06;;;;;;;;;;;26.10;31.40;;;;;;5090184;28;20355;-56
2021/01/12 05:31:31;;;;;;;;;;;26.10;31.50;;;;;;5075151;28;19921;-55
2021/01/12 05:34:04;;;;;;;;;;;26.10;31.50;;;;;;5079722;28;19917;-56
2021/01/12 05:36:29;;;;;;;;;;;26.20;31.50;;;;;;5090056;28;19920;-53
2021/01/12 05:38:58;;;;;;;;;;;26.20;31.60;;;;;;5095645;28;20258;-52
2021/01/12 05:41:24;;;;;;;;;;;26.10;31.50;;;;;;5083270;28;19909;-54
2021/01/12 05:43:49;;;;;;;;;;;26.20;31.60;;;;;;5091047;28;19916;-55
2021/01/12 05:46:15;;;;;;;;;;;26.10;31.60;;;;;;5085668;28;19915;-52
2021/01/12 05:48:46;;;;;;;;;;;26.10;31.60;;;;;;5095286;28;19916;-51
2021/01/12 05:51:13;;;;;;;;;;;26.10;31.60;;;;;;5078720;28;20010;-55
2021/01/12 05:53:39;;;;;;;;;;;26.10;31.70;;;;;;5082566;28;19935;-53
2021/01/12 05:56:04;;;;;;;;;;;26.10;31.70;;;;;;5095064;28;19916;-53
2021/01/12 05:58:30;;;;;;;;;;;26.20;31.80;;;;;;5087571;28;19908;-53
2021/01/12 06:00:58;;;;;;;;;;;26.10;32.30;;;;;;5074813;28;19912;-55
2021/01/12 06:03:24;;;;;;;;;;;26.10;31.70;;;;;;5088924;28;19962;-54
2021/01/12 06:05:49;;;;;;;;;;;26.10;31.70;;;;;;5088906;28;19921;-52
2021/01/12 06:08:15;;;;;;;;;;;26.20;31.80;;;;;;5074843;28;19914;-56
2021/01/12 06:10:43;;;;;;;;;;;26.20;31.80;;;;;;5074654;28;19999;-52
2021/01/12 06:13:11;;;;;;;;;;;26.10;31.80;;;;;;5074588;28;19966;-53
2021/01/12 06:15:36;;;;;;;;;;;26.10;31.80;;;;;;5079977;28;19920;-52
2021/01/12 06:18:05;;;;;;;;;;;26.20;31.90;;;;;;5093822;28;19912;-54
2021/01/12 06:20:32;;;;;;;;;;;26.20;31.90;;;;;;5082694;28;19909;-55
2021/01/12 06:22:57;;;;;;;;;;;26.10;31.90;;;;;;5077149;28;19913;-52
2021/01/12 06:25:23;;;;;;;;;;;26.10;31.90;;;;;;5073276;28;20363;-53
2021/01/12 06:27:48;;;;;;;;;;;26.10;31.90;;;;;;5074154;28;19916;-54
2021/01/12 06:30:15;;;;;;;;;;;26.10;32.00;;;;;;5091688;28;19920;-55
2021/01/12 06:32:40;;;;;;;;;;;26.10;32.00;;;;;;5089335;28;20283;-55
2021/01/12 06:35:06;;;;;;;;;;;26.10;31.90;;;;;;5073986;28;19915;-54
2021/01/12 06:37:41;;;;;;;;;;;26.20;32.00;;;;;;5074043;28;19952;-52
2021/01/12 06:40:10;;;;;;;;;;;26.10;32.00;;;;;;5073867;28;20394;-55
2021/01/12 06:42:36;;;;;;;;;;;26.20;32.10;;;;;;5074220;28;19975;-55
2021/01/12 06:45:01;;;;;;;;;;;26.10;32.00;;;;;;5074213;28;19909;-55
2021/01/12 06:47:27;;;;;;;;;;;26.10;32.00;;;;;;5080397;28;19912;-55
2021/01/12 06:50:08;;;;;;;;;;;26.10;32.00;;;;;;5094498;28;19999;-55
2021/01/12 06:52:37;;;;;;;;;;;26.10;32.10;;;;;;5091488;28;20441;-53
2021/01/12 06:55:06;;;;;;;;;;;26.10;32.20;;;;;;5082625;28;19912;-55
2021/01/12 06:57:32;;;;;;;;;;;26.10;32.20;;;;;;5075396;28;19952;-55
2021/01/12 06:59:57;;;;;;;;;;;26.10;32.20;;;;;;5081464;28;20395;-54
2021/01/12 07:02:26;;;;;;;;;;;26.10;32.20;;;;;;5078209;28;20007;-56
2021/01/12 07:05:09;;;;;;;;;;;26.10;32.20;;;;;;5073735;28;19909;-55
2021/01/12 07:07:35;;;;;;;;;;;26.10;32.20;;;;;;5066688;28;20005;-56
2021/01/12 07:10:02;;;;;;;;;;;26.10;32.20;;;;;;5092786;28;19908;-55
2021/01/12 07:12:28;;;;;;;;;;;26.10;32.20;;;;;;5073596;28;19916;-56
2021/01/12 07:14:54;;;;;;;;;;;26.10;32.90;;;;;;5073394;28;19912;-54
2021/01/12 07:17:26;;;;;;;;;;;26.10;32.30;;;;;;5073470;28;19924;-55
2021/01/12 07:20:05;;;;;;;;;;;26.10;32.40;;;;;;5073055;28;19908;-55
2021/01/12 07:22:34;;;;;;;;;;;26.10;32.30;;;;;;5068560;28;20447;-56
2021/01/12 07:25:00;;;;;;;;;;;26.10;32.40;;;;;;5093727;28;19923;-56
2021/01/12 07:27:25;;;;;;;;;;;26.10;32.30;;;;;;5091401;28;19908;-55
2021/01/12 07:29:54;;;;;;;;;;;26.10;32.30;;;;;;5072931;28;20375;-56
2021/01/12 07:32:30;;;;;;;;;;;26.10;32.40;;;;;;5078812;28;19916;-55
2021/01/12 07:34:57;;;;;;;;;;;26.10;32.50;;;;;;5093584;28;19943;-54
2021/01/12 07:37:26;;;;;;;;;;;26.10;32.50;;;;;;5092332;28;19917;-55
2021/01/12 07:39:52;;;;;;;;;;;26.10;32.40;;;;;;5092947;28;20427;-53
2021/01/12 07:42:17;;;;;;;;;;;26.10;32.50;;;;;;5073325;28;19912;-53
2021/01/12 07:44:43;;;;;;;;;;;26.10;32.50;;;;;;5072948;28;20380;-51
2021/01/12 07:47:08;;;;;;;;;;;26.10;32.40;;;;;;5079814;28;19916;-51
2021/01/12 07:49:34;;;;;;;;;;;26.10;32.50;;;;;;5076462;28;20358;-52
2021/01/12 07:51:59;;;;;;;;;;;26.10;32.50;;;;;;5088536;28;19913;-52
2021/01/12 07:54:25;;;;;;;;;;;26.10;32.50;;;;;;5088446;28;20003;-52
2021/01/12 07:56:53;;;;;;;;;;;26.10;32.50;;;;;;5087051;28;20263;-52
2021/01/12 07:59:19;;;;;;;;;;;26.10;32.50;;;;;;5079724;28;19916;-54
2021/01/12 08:01:45;;;;;;;;;;;26.20;30.10;;;;;;5085623;28;20408;-51
2021/01/12 08:04:12;;;;;;;;;;;26.00;29.70;;;;;;5091654;28;19912;-57
2021/01/12 08:06:43;;;;;;;;;;;26.10;33.60;;;;;;5078854;28;20025;-67
2021/01/12 08:09:09;;;;;;;;;;;26.50;38.30;;;;;;5072372;28;19912;-67
2021/01/12 08:11:36;;;;;;;;;;;26.90;42.90;;;;;;5074929;28;20033;-69
2021/01/12 08:14:07;;;;;;;;;;;27.30;44.90;;;;;;5071094;28;19920;-68
2021/01/12 08:16:33;;;;;;;;;;;27.60;46.00;;;;;;5056446;28;19928;-67
2021/01/12 08:18:58;;;;;;;;;;;27.90;47.20;;;;;;5091863;28;19916;-62
2021/01/12 08:21:24;;;;;;;;;;;28.10;47.80;;;;;;5080337;28;19912;-62
2021/01/12 08:23:58;;;;;;;;;;;28.30;48.60;;;;;;5072639;28;20456;-62
2021/01/12 08:26:23;;;;;;;;;;;28.40;49.50;;;;;;5072281;28;20420;-62
2021/01/12 08:28:48;;;;;;;;;;;28.60;49.90;;;;;;5084689;28;19916;-61
2021/01/12 08:31:17;;;;;;;;;;;28.70;50.10;;;;;;5087681;28;19920;-61
2021/01/12 08:33:42;;;;;;;;;;;28.80;50.40;;;;;;5080173;28;19966;-61
2021/01/12 08:36:09;;;;;;;;;;;28.90;50.90;;;;;;5088112;28;20321;-58
2021/01/12 08:38:35;;;;;;;;;;;29.00;51.50;;;;;;5087896;28;19947;-54
2021/01/12 08:41:04;;;;;;;;;;;28.80;48.80;;;;;;5079024;28;20367;-52
2021/01/12 08:43:29;;;;;;;;;;;28.60;45.00;;;;;;5054235;28;19912;-53
2021/01/12 08:46:01;;;;;;;;;;;28.60;47.60;;;;;;5092409;28;19931;-58
2021/01/12 08:48:27;;;;;;;;;;;28.50;48.20;;;;;;5074746;28;20374;-60
2021/01/12 08:50:52;;;;;;;;;;;28.50;48.10;;;;;;5078449;28;19958;-60
2021/01/12 08:53:18;;;;;;;;;;;28.60;49.50;;;;;;5072430;28;19954;-60
2021/01/12 08:55:43;;;;;;;;;;;28.50;48.50;;;;;;5073231;28;20331;-56
2021/01/12 08:58:09;;;;;;;;;;;28.60;49.40;;;;;;5072357;28;20016;-57
2021/01/12 09:00:38;;;;;;;;;;;28.60;47.80;;;;;;5074632;28;19913;-59
2021/01/12 09:03:04;;;;;;;;;;;28.70;48.30;;;;;;5088534;28;20293;-61
2021/01/12 09:05:30;;;;;;;;;;;28.70;47.90;;;;;;5072315;28;19981;-61
2021/01/12 09:07:59;;;;;;;;;;;28.70;47.60;;;;;;5072442;28;19909;-62
2021/01/12 09:10:25;;;;;;;;;;;28.70;47.50;;;;;;5076026;28;19997;-56
2021/01/12 09:12:52;;;;;;;;;;;28.80;47.60;;;;;;5095923;28;20335;-55
2021/01/12 09:15:17;;;;;;;;;;;28.70;47.30;;;;;;5092613;28;19920;-52
2021/01/12 09:17:43;;;;;;;;;;;28.70;46.90;;;;;;5090440;28;19921;-61
2021/01/12 09:20:09;;;;;;;;;;;28.80;47.10;;;;;;5076871;28;20333;-55
2021/01/12 09:22:34;;;;;;;;;;;28.80;46.80;;;;;;5083079;28;19918;-57
2021/01/12 09:24:59;;;;;;;;;;;28.80;46.80;;;;;;5075592;28;19908;-56
2021/01/12 09:27:28;;;;;;;;;;;28.80;46.10;;;;;;5095725;28;20354;-56
2021/01/12 09:29:54;;;;;;;;;;;28.80;46.20;;;;;;5095109;28;19924;-58
2021/01/12 09:32:26;;;;;;;;;;;28.90;45.70;;;;;;5079271;28;20032;-61
2021/01/12 09:34:52;;;;;;;;;;;28.90;45.30;;;;;;5085580;28;20006;-51
2021/01/12 09:37:17;;;;;;;;;;;28.90;45.40;;;;;;5095459;28;20019;-57
2021/01/12 09:39:44;;;;;;;;;;;28.70;45.00;;;;;;5095027;28;19908;-57
2021/01/12 09:42:09;;;;;;;;;;;28.90;44.90;;;;;;5082528;28;19916;-58
2021/01/12 09:44:34;;;;;;;;;;;28.80;45.10;;;;;;5095533;28;19958;-56
2021/01/12 09:47:01;;;;;;;;;;;28.80;44.50;;;;;;5090354;28;20282;-54
2021/01/12 09:49:26;;;;;;;;;;;28.70;44.50;;;;;;5075021;28;19912;-58
2021/01/12 09:51:51;;;;;;;;;;;28.90;44.00;;;;;;5066502;28;20393;-58
2021/01/12 09:54:17;;;;;;;;;;;28.70;43.40;;;;;;5054639;28;19970;-60
2021/01/12 09:56:42;;;;;;;;;;;28.70;43.70;;;;;;5081847;28;19935;-57
2021/01/12 09:59:08;;;;;;;;;;;28.80;43.40;;;;;;5094975;28;20400;-58
2021/01/12 10:01:33;;;;;;;;;;;28.80;43.40;;;;;;5084849;28;19908;-58
2021/01/12 10:03:59;;;;;;;;;;;28.90;42.90;;;;;;5093237;28;19916;-56
2021/01/12 10:06:27;;;;;;;;;;;29.00;42.60;;;;;;5091666;28;20308;-58
2021/01/12 10:08:53;;;;;;;;;;;29.00;42.30;;;;;;5093144;28;19916;-65
2021/01/12 10:11:20;;;;;;;;;;;29.00;42.30;;;;;;5093432;28;19912;-55
2021/01/12 10:13:46;;;;;;;;;;;29.00;42.20;;;;;;5091336;28;19923;-61
2021/01/12 10:16:19;;;;;;;;;;;29.10;42.10;;;;;;5074218;28;19920;-50
2021/01/12 10:18:44;;;;;;;;;;;29.00;42.10;;;;;;5074551;28;19908;-52
2021/01/12 10:21:10;;;;;;;;;;;29.00;42.30;;;;;;5080556;28;19961;-56
2021/01/12 10:23:35;;;;;;;;;;;29.00;42.20;;;;;;5073310;28;20386;-57
2021/01/12 10:26:01;;;;;;;;;;;29.00;41.90;;;;;;5079561;28;19909;-58
2021/01/12 10:28:27;;;;;;;;;;;29.00;42.10;;;;;;5074487;28;19911;-57
2021/01/12 10:30:53;;;;;;;;;;;29.00;41.70;;;;;;5088964;28;19932;-60
2021/01/12 10:33:18;;;;;;;;;;;28.90;42.10;;;;;;5094167;28;19935;-57
2021/01/12 10:35:44;;;;;;;;;;;28.90;41.60;;;;;;5093930;28;19915;-57
2021/01/12 10:38:09;;;;;;;;;;;28.90;41.80;;;;;;5090760;28;19917;-61
2021/01/12 10:40:35;;;;;;;;;;;28.90;42.40;;;;;;5089641;28;19998;-58
2021/01/12 10:43:00;;;;;;;;;;;28.90;42.00;;;;;;5093897;28;20350;-59
2021/01/12 10:45:27;;;;;;;;;;;29.00;41.60;;;;;;5089823;28;19919;-61
2021/01/12 10:47:52;;;;;;;;;;;29.00;42.00;;;;;;5073884;28;19909;-61
2021/01/12 10:50:18;;;;;;;;;;;29.00;41.20;;;;;;5075922;28;19926;-60
2021/01/12 10:52:44;;;;;;;;;;;28.90;41.20;;;;;;5075140;28;19916;-54
2021/01/12 10:55:10;;;;;;;;;;;29.00;42.60;;;;;;5076228;28;20444;-60
2021/01/12 10:57:36;;;;;;;;;;;29.00;40.90;;;;;;5089333;28;19924;-63
2021/01/12 11:00:03;;;;;;;;;;;29.00;40.90;;;;;;5074015;28;19974;-53
2021/01/12 11:02:32;;;;;;;;;;;29.00;41.00;;;;;;5076872;28;20144;-58
2021/01/12 11:04:58;;;;;;;;;;;29.00;40.80;;;;;;5073351;28;19912;-59
2021/01/12 11:07:24;;;;;;;;;;;28.90;41.00;;;;;;5093831;28;19961;-56
2021/01/12 11:09:50;;;;;;;;;;;29.00;41.50;;;;;;5093730;28;19926;-57
2021/01/12 11:12:19;;;;;;;;;;;29.00;40.80;;;;;;5074697;28;20290;-56
2021/01/12 11:14:45;;;;;;;;;;;29.00;41.10;;;;;;5073477;28;19999;-54
2021/01/12 11:17:13;;;;;;;;;;;29.00;40.30;;;;;;5084485;28;20007;-57
2021/01/12 11:19:39;;;;;;;;;;;29.00;40.20;;;;;;5073014;28;19913;-55
2021/01/12 11:22:05;;;;;;;;;;;28.90;40.50;;;;;;5082244;28;19955;-55
2021/01/12 11:24:30;;;;;;;;;;;28.80;40.50;;;;;;5091240;28;19947;-52
2021/01/12 11:26:56;;;;;;;;;;;28.80;40.50;;;;;;5077302;28;19953;-55
2021/01/12 11:29:22;;;;;;;;;;;28.90;40.40;;;;;;5088748;28;20003;-60
2021/01/12 11:31:48;;;;;;;;;;;28.90;40.10;;;;;;5081864;28;19919;-60
2021/01/12 11:34:13;;;;;;;;;;;28.90;40.30;;;;;;5092778;28;20024;-60
2021/01/12 11:36:42;;;;;;;;;;;29.00;40.40;;;;;;5092966;28;19924;-57
2021/01/12 11:39:10;;;;;;;;;;;29.00;40.20;;;;;;5092803;28;19908;-53
2021/01/12 11:41:44;;;;;;;;;;;29.10;40.10;;;;;;5087206;28;19922;-61
2021/01/12 11:44:09;;;;;;;;;;;29.10;40.20;;;;;;5083400;28;19920;-60
2021/01/12 11:46:35;;;;;;;;;;;29.10;39.50;;;;;;5093115;28;20011;-55
2021/01/12 11:49:01;;;;;;;;;;;29.20;39.60;;;;;;5092852;28;20023;-54
2021/01/12 11:51:36;;;;;;;;;;;29.20;39.30;;;;;;5084593;28;19919;-63
2021/01/12 11:54:02;;;;;;;;;;;29.20;39.20;;;;;;5093065;28;19908;-60
2021/01/12 11:56:27;;;;;;;;;;;29.20;39.10;;;;;;5079978;28;19926;-54
2021/01/12 11:58:53;;;;;;;;;;;29.20;39.10;;;;;;5072967;28;19921;-62
2021/01/12 12:01:18;;;;;;;;;;;29.20;39.00;;;;;;5082066;28;19938;-59
2021/01/12 12:03:44;;;;;;;;;;;28.90;36.80;;;;;;5091266;28;19935;-60
2021/01/12 12:06:13;;;;;;;;;;;28.80;37.10;;;;;;5090272;28;19912;-57
2021/01/12 12:08:39;;;;;;;;;;;28.90;38.30;;;;;;5087061;28;19966;-59
2021/01/12 12:11:04;;;;;;;;;;;29.00;38.60;;;;;;5071342;28;19912;-56
2021/01/12 12:13:30;;;;;;;;;;;29.10;38.60;;;;;;5072562;28;19912;-55
2021/01/12 12:15:55;;;;;;;;;;;29.10;38.50;;;;;;5080203;28;20061;-56
2021/01/12 12:18:21;;;;;;;;;;;29.10;38.50;;;;;;5091970;28;19908;-53
2021/01/12 12:20:47;;;;;;;;;;;29.20;38.40;;;;;;5080481;28;20395;-59
2021/01/12 12:23:12;;;;;;;;;;;29.20;38.60;;;;;;5088825;28;20483;-56
2021/01/12 12:25:38;;;;;;;;;;;29.10;38.20;;;;;;5090253;28;19909;-59
2021/01/12 12:28:03;;;;;;;;;;;29.20;38.20;;;;;;5072323;28;20313;-61
2021/01/12 12:30:29;;;;;;;;;;;29.20;38.10;;;;;;5076427;28;19931;-59
2021/01/12 12:32:54;;;;;;;;;;;29.20;38.00;;;;;;5073843;28;19912;-60
2021/01/12 12:35:20;;;;;;;;;;;29.30;38.00;;;;;;5092323;28;19912;-62
2021/01/12 12:37:45;;;;;;;;;;;29.30;37.90;;;;;;5092690;28;19920;-55
2021/01/12 12:40:12;;;;;;;;;;;29.30;37.90;;;;;;5079071;28;19923;-59
2021/01/12 12:42:39;;;;;;;;;;;29.30;37.90;;;;;;5071866;28;20395;-54
2021/01/12 12:45:05;;;;;;;;;;;29.20;37.90;;;;;;5073355;28;20317;-58
2021/01/12 12:47:32;;;;;;;;;;;29.30;37.90;;;;;;5083421;28;19916;-59
2021/01/12 12:49:57;;;;;;;;;;;29.30;37.90;;;;;;5095887;28;20019;-56
2021/01/12 12:52:23;;;;;;;;;;;29.20;37.90;;;;;;5086020;28;20402;-60
2021/01/12 12:54:48;;;;;;;;;;;29.20;37.90;;;;;;5096236;28;19908;-51
2021/01/12 12:57:14;;;;;;;;;;;29.20;37.80;;;;;;5094083;28;19971;-58
2021/01/12 12:59:40;;;;;;;;;;;29.20;37.80;;;;;;5096032;28;19912;-60
2021/01/12 13:02:05;;;;;;;;;;;29.20;38.00;;;;;;5090996;28;19916;-60
2021/01/12 13:04:31;;;;;;;;;;;29.20;37.80;;;;;;5080025;28;20345;-60
2021/01/12 13:06:57;;;;;;;;;;;29.20;37.60;;;;;;5076016;28;19954;-61
2021/01/12 13:09:22;;;;;;;;;;;29.20;37.70;;;;;;5075939;28;19913;-57
2021/01/12 13:11:50;;;;;;;;;;;29.20;37.60;;;;;;5074842;28;19912;-60
2021/01/12 13:14:16;;;;;;;;;;;29.20;37.90;;;;;;5075637;28;20469;-63
2021/01/12 13:16:42;;;;;;;;;;;29.20;37.50;;;;;;5060997;28;19959;-60
2021/01/12 13:19:16;;;;;;;;;;;29.20;37.40;;;;;;5055678;28;19909;-60
2021/01/12 13:21:51;;;;;;;;;;;29.20;37.60;;;;;;5079109;28;19928;-58
2021/01/12 13:24:17;;;;;;;;;;;29.20;38.00;;;;;;5075712;28;19912;-60
2021/01/12 13:26:44;;;;;;;;;;;29.20;37.40;;;;;;5089518;28;19918;-61
2021/01/12 13:29:10;;;;;;;;;;;29.20;37.30;;;;;;5095430;28;20285;-62
2021/01/12 13:31:35;;;;;;;;;;;29.30;37.30;;;;;;5081397;28;20007;-59
2021/01/12 13:34:01;;;;;;;;;;;29.30;37.20;;;;;;5075421;28;19927;-57
2021/01/12 13:36:26;;;;;;;;;;;29.20;37.20;;;;;;5087344;28;19927;-55
2021/01/12 13:38:52;;;;;;;;;;;29.30;37.20;;;;;;5095700;28;20358;-59
2021/01/12 13:41:17;;;;;;;;;;;29.20;37.10;;;;;;5083946;28;19930;-54
2021/01/12 13:43:43;;;;;;;;;;;29.20;37.00;;;;;;5075385;28;19958;-60
2021/01/12 13:46:08;;;;;;;;;;;29.20;37.20;;;;;;5079722;28;19915;-60
2021/01/12 13:48:34;;;;;;;;;;;29.20;37.20;;;;;;5088403;28;20358;-54
2021/01/12 13:50:59;;;;;;;;;;;29.20;37.30;;;;;;5086230;28;20003;-61
2021/01/12 13:53:25;;;;;;;;;;;29.20;37.30;;;;;;5093553;28;19923;-59
2021/01/12 13:55:51;;;;;;;;;;;29.20;37.20;;;;;;5090044;28;19915;-57
2021/01/12 13:58:17;;;;;;;;;;;29.20;37.10;;;;;;5073388;28;19920;-57
2021/01/12 14:00:43;;;;;;;;;;;29.20;37.20;;;;;;5083556;28;19954;-56
2021/01/12 14:03:08;;;;;;;;;;;29.20;37.10;;;;;;5071235;28;19913;-62
2021/01/12 14:05:34;;;;;;;;;;;29.30;37.20;;;;;;5060360;28;19916;-55
2021/01/12 14:07:59;;;;;;;;;;;29.20;37.10;;;;;;5075194;28;19916;-57
2021/01/12 14:10:25;;;;;;;;;;;29.20;37.10;;;;;;5074480;28;19934;-57